createdAt,value
2023-03-06T00:01:48.672Z,22.39
2023-03-06T00:04:15.724Z,22.68
2023-03-06T00:06:42.497Z,22.57
2023-03-06T00:09:09.906Z,22.48
2023-03-06T00:11:36.817Z,22.50
2023-03-06T00:14:05.036Z,22.74
2023-03-06T00:16:31.923Z,22.46
2023-03-06T00:18:58.765Z,22.67
2023-03-06T00:21:25.554Z,22.69
2023-03-06T00:23:52.358Z,22.66
2023-03-06T00:26:19.143Z,22.68
2023-03-06T00:28:46.052Z,22.73
2023-03-06T00:31:14.309Z,22.74
2023-03-06T00:33:42.262Z,22.88
2023-03-06T00:36:09.444Z,22.93
2023-03-06T00:38:37.264Z,22.99
2023-03-06T00:41:08.479Z,23.10
2023-03-06T00:43:35.349Z,22.84
2023-03-06T00:46:02.265Z,22.95
2023-03-06T00:48:30.459Z,22.94
2023-03-06T00:50:57.258Z,22.98
2023-03-06T00:53:24.246Z,22.90
2023-03-06T00:55:51.376Z,22.87
2023-03-06T00:58:18.290Z,23.02
2023-03-06T01:00:45.692Z,22.70
2023-03-06T01:03:12.675Z,22.86
2023-03-06T01:05:41.123Z,22.93
2023-03-06T01:08:08.861Z,23.00
2023-03-06T01:10:38.949Z,22.92
2023-03-06T01:13:06.073Z,22.72
2023-03-06T01:15:33.072Z,22.95
2023-03-06T01:18:00.216Z,22.78
2023-03-06T01:20:27.240Z,22.82
2023-03-06T01:22:56.632Z,22.70
2023-03-06T01:25:25.033Z,22.82
2023-03-06T01:27:53.052Z,22.75
2023-03-06T01:30:20.640Z,22.79
2023-03-06T01:32:48.295Z,22.89
2023-03-06T01:35:15.190Z,23.17
2023-03-06T01:37:42.220Z,22.89
2023-03-06T01:40:12.536Z,22.89
2023-03-06T01:42:40.240Z,22.78
2023-03-06T01:45:29.137Z,22.71
2023-03-06T01:47:56.113Z,22.82
2023-03-06T01:50:23.126Z,22.78
2023-03-06T01:52:52.994Z,22.57
2023-03-06T01:55:23.322Z,22.69
2023-03-06T01:57:55.007Z,22.78
2023-03-06T02:00:25.050Z,22.76
2023-03-06T02:02:54.961Z,22.95
2023-03-06T02:05:22.273Z,22.74
2023-03-06T02:07:50.729Z,22.62
2023-03-06T02:10:18.771Z,22.78
2023-03-06T02:12:49.279Z,22.82
2023-03-06T02:15:18.820Z,22.82
2023-03-06T02:17:47.945Z,22.86
2023-03-06T02:20:24.985Z,22.72
2023-03-06T02:22:59.632Z,22.81
2023-03-06T02:25:36.236Z,22.68
2023-03-06T02:28:04.462Z,22.68
2023-03-06T02:30:31.863Z,22.68
2023-03-06T02:33:00.827Z,22.89
2023-03-06T02:35:30.189Z,22.73
2023-03-06T02:37:59.769Z,22.58
2023-03-06T02:40:26.699Z,22.72
2023-03-06T02:42:57.475Z,22.76
2023-03-06T02:45:31.957Z,22.65
2023-03-06T02:47:58.798Z,22.79
2023-03-06T02:50:25.798Z,22.76
2023-03-06T02:52:52.652Z,22.65
2023-03-06T02:55:19.468Z,22.90
2023-03-06T02:57:46.593Z,22.98
2023-03-06T03:00:15.830Z,22.77
2023-03-06T03:02:44.031Z,22.61
2023-03-06T03:05:10.826Z,22.58
2023-03-06T03:07:41.668Z,22.58
2023-03-06T03:10:10.411Z,22.72
2023-03-06T03:12:37.300Z,22.75
2023-03-06T03:15:04.764Z,22.97
2023-03-06T03:17:36.740Z,22.69
2023-03-06T03:20:04.603Z,22.71
2023-03-06T03:22:31.492Z,22.60
2023-03-06T03:24:58.282Z,22.52
2023-03-06T03:27:25.282Z,22.69
2023-03-06T03:29:52.337Z,22.52
2023-03-06T03:32:19.176Z,22.63
2023-03-06T03:34:47.773Z,22.69
2023-03-06T03:37:14.604Z,22.71
2023-03-06T03:39:42.786Z,22.64
2023-03-06T03:42:10.675Z,22.73
2023-03-06T03:44:37.519Z,22.70
2023-03-06T03:47:05.209Z,22.64
2023-03-06T03:49:32.124Z,22.79
2023-03-06T03:52:01.678Z,22.55
2023-03-06T03:54:31.333Z,22.43
2023-03-06T03:56:58.436Z,22.56
2023-03-06T03:59:30.359Z,22.73
2023-03-06T04:02:16.033Z,22.63
2023-03-06T04:04:51.292Z,22.56
2023-03-06T04:07:19.687Z,22.53
2023-03-06T04:09:47.363Z,22.69
2023-03-06T04:12:14.337Z,22.69
2023-03-06T04:14:42.081Z,22.80
2023-03-06T04:17:08.953Z,22.51
2023-03-06T04:19:35.734Z,22.80
2023-03-06T04:22:02.601Z,22.77
2023-03-06T04:24:33.158Z,22.59
2023-03-06T04:27:00.492Z,22.67
2023-03-06T04:29:27.369Z,22.72
2023-03-06T04:31:54.290Z,22.49
2023-03-06T04:34:21.322Z,22.74
2023-03-06T04:36:48.534Z,22.58
2023-03-06T04:39:17.228Z,22.60
2023-03-06T04:41:45.497Z,22.45
2023-03-06T04:44:12.416Z,22.75
2023-03-06T04:46:39.214Z,22.49
2023-03-06T04:49:07.464Z,22.59
2023-03-06T04:51:36.809Z,22.71
2023-03-06T04:54:04.085Z,22.45
2023-03-06T04:56:31.026Z,22.35
2023-03-06T04:58:59.288Z,22.59
2023-03-06T05:01:26.126Z,22.54
2023-03-06T05:03:53.079Z,22.59
2023-03-06T05:06:19.842Z,22.48
2023-03-06T05:08:47.443Z,22.56
2023-03-06T05:11:14.308Z,22.52
2023-03-06T05:13:41.191Z,22.32
2023-03-06T05:16:09.714Z,22.59
2023-03-06T05:18:37.145Z,22.31
2023-03-06T05:21:04.933Z,22.44
2023-03-06T05:23:33.314Z,22.40
2023-03-06T05:26:00.497Z,22.60
2023-03-06T05:28:28.650Z,22.64
2023-03-06T05:30:55.807Z,22.28
2023-03-06T05:33:23.960Z,22.52
2023-03-06T05:35:50.794Z,22.50
2023-03-06T05:38:17.633Z,22.54
2023-03-06T05:40:45.323Z,22.73
2023-03-06T05:43:12.504Z,22.54
2023-03-06T05:45:40.612Z,22.50
2023-03-06T05:48:08.294Z,22.43
2023-03-06T05:50:36.520Z,22.70
2023-03-06T05:53:03.839Z,22.80
2023-03-06T05:55:30.662Z,22.97
2023-03-06T05:57:57.516Z,22.93
2023-03-06T06:00:24.918Z,23.07
2023-03-06T06:02:51.784Z,22.89
2023-03-06T06:05:18.620Z,22.87
2023-03-06T06:07:46.848Z,22.97
2023-03-06T06:10:13.701Z,22.92
2023-03-06T06:12:40.858Z,22.97
2023-03-06T06:15:08.614Z,23.10
2023-03-06T06:17:35.636Z,22.80
2023-03-06T06:20:02.462Z,22.82
2023-03-06T06:22:29.526Z,22.84
2023-03-06T06:24:57.965Z,22.90
2023-03-06T06:27:24.735Z,22.76
2023-03-06T06:29:52.680Z,22.55
2023-03-06T06:32:19.752Z,22.64
2023-03-06T06:34:46.595Z,22.74
2023-03-06T06:37:13.481Z,22.66
2023-03-06T06:39:40.509Z,22.51
2023-03-06T06:42:29.859Z,22.71
2023-03-06T06:44:56.876Z,22.57
2023-03-06T06:47:25.336Z,22.57
2023-03-06T06:49:53.916Z,22.47
2023-03-06T06:52:20.803Z,22.49
2023-03-06T06:54:47.678Z,22.29
2023-03-06T06:57:16.524Z,22.33
2023-03-06T06:59:43.364Z,22.51
2023-03-06T07:02:10.927Z,22.28
2023-03-06T07:04:42.401Z,22.00
2023-03-06T07:07:13.530Z,22.46
2023-03-06T07:09:40.371Z,22.21
2023-03-06T07:12:07.993Z,22.48
2023-03-06T07:14:36.442Z,22.46
2023-03-06T07:17:03.523Z,22.26
2023-03-06T07:19:30.671Z,22.43
2023-03-06T07:21:57.808Z,22.55
2023-03-06T07:24:24.820Z,22.50
2023-03-06T07:26:51.887Z,22.50
2023-03-06T07:29:18.997Z,22.64
2023-03-06T07:31:47.292Z,22.70
2023-03-06T07:34:14.953Z,22.63
2023-03-06T07:36:42.136Z,22.50
2023-03-06T07:39:09.719Z,22.57
2023-03-06T07:41:36.728Z,22.59
2023-03-06T07:44:03.609Z,22.66
2023-03-06T07:46:30.589Z,22.66
2023-03-06T07:48:58.871Z,22.68
2023-03-06T07:51:25.784Z,22.75
2023-03-06T07:53:52.598Z,22.71
2023-03-06T07:56:19.555Z,22.64
2023-03-06T07:58:47.216Z,22.70
2023-03-06T08:01:16.287Z,22.67
2023-03-06T08:03:43.477Z,22.60
2023-03-06T08:06:13.671Z,22.79
2023-03-06T08:08:42.149Z,22.73
2023-03-06T08:11:11.372Z,22.79
2023-03-06T08:13:38.655Z,22.89
2023-03-06T08:16:06.597Z,22.74
2023-03-06T08:18:34.064Z,22.79
2023-03-06T08:21:02.769Z,22.65
2023-03-06T08:23:31.310Z,22.85
2023-03-06T08:25:58.691Z,22.82
2023-03-06T08:28:25.673Z,22.70
2023-03-06T08:30:52.576Z,22.81
2023-03-06T08:33:19.380Z,22.71
2023-03-06T08:35:46.149Z,23.07
2023-03-06T08:38:13.558Z,22.80
2023-03-06T08:40:41.913Z,22.88
2023-03-06T08:43:09.316Z,22.85
2023-03-06T08:45:36.382Z,22.95
2023-03-06T08:48:03.419Z,22.79
2023-03-06T08:50:30.218Z,22.74
2023-03-06T08:52:57.048Z,22.89
2023-03-06T08:55:23.928Z,22.82
2023-03-06T08:57:52.090Z,23.05
2023-03-06T09:00:19.707Z,22.83
2023-03-06T09:02:46.549Z,22.80
2023-03-06T09:05:13.347Z,22.82
2023-03-06T09:07:40.298Z,22.95
2023-03-06T09:10:08.489Z,22.72
2023-03-06T09:12:48.824Z,22.84
2023-03-06T09:15:18.048Z,22.94
2023-03-06T09:17:44.914Z,22.90
2023-03-06T09:20:12.914Z,22.77
2023-03-06T09:22:42.385Z,22.77
2023-03-06T09:25:10.514Z,22.90
2023-03-06T09:27:39.601Z,22.91
2023-03-06T09:30:07.903Z,22.93
2023-03-06T09:32:36.166Z,22.97
2023-03-06T09:35:03.379Z,22.95
2023-03-06T09:37:30.593Z,22.92
2023-03-06T09:39:57.798Z,22.94
2023-03-06T09:42:25.072Z,22.87
2023-03-06T09:44:55.244Z,22.81
2023-03-06T09:47:57.232Z,22.79
2023-03-06T09:50:32.413Z,22.89
2023-03-06T09:53:15.353Z,22.90
2023-03-06T09:55:44.232Z,23.15
2023-03-06T09:58:16.702Z,22.94
2023-03-06T10:00:59.622Z,22.83
2023-03-06T10:03:32.440Z,22.89
2023-03-06T10:06:04.093Z,22.82
2023-03-06T10:08:38.123Z,22.91
2023-03-06T10:11:08.757Z,23.00
2023-03-06T10:13:40.146Z,22.97
2023-03-06T10:16:20.080Z,22.93
2023-03-06T10:18:48.279Z,22.89
2023-03-06T10:21:27.210Z,22.98
2023-03-06T10:23:58.395Z,22.96
2023-03-06T10:26:26.840Z,22.91
2023-03-06T10:29:08.987Z,22.83
2023-03-06T10:31:38.633Z,22.94
2023-03-06T10:34:20.419Z,22.84
2023-03-06T10:36:47.210Z,22.83
2023-03-06T10:39:16.557Z,22.91
2023-03-06T10:41:45.357Z,23.06
2023-03-06T10:44:24.094Z,22.86
2023-03-06T10:46:53.289Z,22.98
2023-03-06T10:49:30.497Z,22.85
2023-03-06T10:52:00.358Z,23.12
2023-03-06T10:54:31.992Z,22.78
2023-03-06T10:57:16.885Z,23.00
2023-03-06T10:59:52.340Z,23.03
2023-03-06T11:02:27.397Z,23.08
2023-03-06T11:04:58.206Z,22.97
2023-03-06T11:07:26.188Z,22.95
2023-03-06T11:10:16.647Z,22.89
2023-03-06T11:12:44.002Z,22.87
2023-03-06T11:15:22.979Z,23.01
2023-03-06T11:17:53.839Z,23.08
2023-03-06T11:20:24.791Z,23.19
2023-03-06T11:22:56.143Z,23.02
2023-03-06T11:25:28.302Z,23.10
2023-03-06T11:28:00.197Z,22.71
2023-03-06T11:30:32.501Z,22.91
2023-03-06T11:33:03.064Z,22.88
2023-03-06T11:35:35.802Z,23.03
2023-03-06T11:38:07.110Z,22.81
2023-03-06T11:40:41.876Z,22.89
2023-03-06T11:43:18.917Z,22.87
2023-03-06T11:45:48.861Z,23.10
2023-03-06T11:48:24.753Z,22.93
2023-03-06T11:50:55.454Z,22.76
2023-03-06T11:53:26.437Z,23.01
2023-03-06T11:56:02.288Z,23.06
2023-03-06T11:58:47.059Z,22.82
2023-03-06T12:01:22.727Z,23.01
2023-03-06T12:03:58.615Z,22.93
2023-03-06T12:06:41.533Z,22.89
2023-03-06T12:09:29.202Z,23.01
2023-03-06T12:12:19.502Z,23.12
2023-03-06T12:15:08.576Z,23.02
2023-03-06T12:17:53.106Z,22.97
2023-03-06T12:20:33.547Z,22.86
2023-03-06T12:23:15.450Z,23.02
2023-03-06T12:25:45.193Z,23.11
2023-03-06T12:28:40.131Z,23.00
2023-03-06T12:31:24.568Z,22.79
2023-03-06T12:34:01.304Z,22.85
2023-03-06T12:36:38.846Z,23.13
2023-03-06T12:39:10.601Z,22.98
2023-03-06T12:41:48.064Z,22.83
2023-03-06T12:44:30.228Z,22.81
2023-03-06T12:47:01.663Z,23.23
2023-03-06T12:49:32.608Z,22.86
2023-03-06T12:52:01.339Z,22.84
2023-03-06T12:54:31.478Z,22.93
2023-03-06T12:57:00.626Z,22.89
2023-03-06T12:59:44.319Z,23.07
2023-03-06T13:02:44.366Z,22.97
2023-03-06T13:05:47.244Z,23.02
2023-03-06T13:08:54.302Z,22.75
2023-03-06T13:12:08.060Z,23.02
2023-03-06T13:14:56.136Z,22.94
2023-03-06T13:17:37.389Z,23.03
2023-03-06T13:20:35.710Z,23.08
2023-03-06T13:23:40.971Z,23.03
2023-03-06T13:26:10.858Z,22.95
2023-03-06T13:28:49.967Z,22.91
2023-03-06T13:31:28.303Z,22.89
2023-03-06T13:33:58.545Z,23.02
2023-03-06T13:36:28.555Z,22.90
2023-03-06T13:39:06.437Z,22.87
2023-03-06T13:41:58.704Z,22.72
2023-03-06T13:44:48.769Z,23.06
2023-03-06T13:47:32.239Z,22.99
2023-03-06T13:49:59.903Z,22.89
2023-03-06T13:52:38.285Z,22.72
2023-03-06T13:55:18.679Z,22.76
2023-03-06T13:58:01.110Z,23.17
2023-03-06T14:01:18.437Z,22.87
2023-03-06T14:04:20.954Z,23.14
2023-03-06T14:06:52.072Z,22.88
2023-03-06T14:09:32.596Z,23.10
2023-03-06T14:12:04.901Z,22.86
2023-03-06T14:14:41.700Z,22.77
2023-03-06T14:17:18.761Z,22.89
2023-03-06T14:19:47.610Z,22.96
2023-03-06T14:22:17.861Z,22.79
2023-03-06T14:24:54.304Z,22.71
2023-03-06T14:27:21.458Z,22.69
2023-03-06T14:29:49.778Z,22.80
2023-03-06T14:32:21.519Z,22.94
2023-03-06T14:34:49.781Z,22.98
2023-03-06T14:37:20.783Z,22.94
2023-03-06T14:39:47.870Z,22.86
2023-03-06T14:42:19.527Z,23.03
2023-03-06T14:44:47.359Z,22.90
2023-03-06T14:47:25.015Z,22.74
2023-03-06T14:50:24.250Z,22.88
2023-03-06T14:52:55.530Z,22.93
2023-03-06T14:55:24.491Z,22.72
2023-03-06T14:57:56.892Z,22.97
2023-03-06T15:00:36.270Z,22.88
2023-03-06T15:03:06.757Z,23.16
2023-03-06T15:05:35.375Z,23.00
2023-03-06T15:08:08.440Z,22.72
2023-03-06T15:10:36.742Z,22.97
2023-03-06T15:13:13.981Z,22.98
2023-03-06T15:15:40.841Z,22.80
2023-03-06T15:18:28.671Z,22.71
2023-03-06T15:21:11.601Z,22.92
2023-03-06T15:23:40.913Z,22.61
2023-03-06T15:26:29.551Z,23.08
2023-03-06T15:29:20.299Z,23.05
2023-03-06T15:31:47.310Z,22.84
2023-03-06T15:34:18.509Z,22.71
2023-03-06T15:36:48.557Z,22.78
2023-03-06T15:39:30.160Z,22.84
2023-03-06T15:41:57.486Z,22.84
2023-03-06T15:44:24.443Z,22.87
2023-03-06T15:46:56.299Z,22.76
2023-03-06T15:49:26.477Z,22.82
2023-03-06T15:51:55.043Z,22.89
2023-03-06T15:54:21.848Z,22.77
2023-03-06T15:56:50.107Z,23.04
2023-03-06T15:59:22.299Z,22.76
2023-03-06T16:01:49.838Z,22.87
2023-03-06T16:04:17.142Z,22.77
2023-03-06T16:06:45.831Z,22.86
2023-03-06T16:09:14.564Z,22.75
2023-03-06T16:11:47.304Z,22.92
2023-03-06T16:14:20.089Z,22.84
2023-03-06T16:16:49.466Z,22.77
2023-03-06T16:19:25.910Z,22.68
2023-03-06T16:21:53.643Z,22.68
2023-03-06T16:24:22.004Z,22.71
2023-03-06T16:26:51.195Z,22.66
2023-03-06T16:29:19.633Z,22.99
2023-03-06T16:31:46.776Z,22.71
2023-03-06T16:34:13.792Z,22.71
2023-03-06T16:36:41.461Z,22.89
2023-03-06T16:39:13.112Z,23.06
2023-03-06T16:41:41.411Z,22.90
2023-03-06T16:44:10.103Z,22.81
2023-03-06T16:46:39.850Z,23.06
2023-03-06T16:49:07.209Z,23.29
2023-03-06T16:51:34.239Z,23.15
2023-03-06T16:54:01.094Z,23.07
2023-03-06T16:56:27.880Z,23.07
2023-03-06T16:58:56.094Z,23.15
2023-03-06T17:01:23.076Z,23.11
2023-03-06T17:03:49.965Z,23.16
2023-03-06T17:06:18.355Z,23.21
2023-03-06T17:08:46.256Z,22.97
2023-03-06T17:11:13.679Z,23.10
2023-03-06T17:13:41.012Z,22.99
2023-03-06T17:16:16.126Z,22.96
2023-03-06T17:18:44.161Z,22.90
2023-03-06T17:21:11.570Z,22.94
2023-03-06T17:23:38.729Z,22.76
2023-03-06T17:26:08.411Z,22.96
2023-03-06T17:28:36.384Z,22.95
2023-03-06T17:31:10.433Z,22.86
2023-03-06T17:33:38.930Z,22.65
2023-03-06T17:36:06.656Z,22.79
2023-03-06T17:38:33.521Z,22.43
2023-03-06T17:41:03.647Z,22.44
2023-03-06T17:43:31.097Z,22.72
2023-03-06T17:46:01.750Z,22.22
2023-03-06T17:48:28.548Z,22.51
2023-03-06T17:50:57.193Z,22.28
2023-03-06T17:53:24.006Z,22.36
2023-03-06T17:55:50.959Z,22.30
2023-03-06T17:58:17.904Z,22.33
2023-03-06T18:00:45.864Z,22.17
2023-03-06T18:03:12.766Z,22.24
2023-03-06T18:05:39.594Z,22.20
2023-03-06T18:08:10.204Z,22.32
2023-03-06T18:10:41.394Z,22.18
2023-03-06T18:13:09.305Z,22.19
2023-03-06T18:15:38.772Z,22.26
2023-03-06T18:18:05.910Z,22.07
2023-03-06T18:20:33.046Z,22.10
2023-03-06T18:23:03.498Z,22.08
2023-03-06T18:25:32.438Z,21.99
2023-03-06T18:27:59.381Z,21.88
2023-03-06T18:30:26.294Z,21.78
2023-03-06T18:32:53.492Z,22.17
2023-03-06T18:35:20.681Z,22.25
2023-03-06T18:37:47.558Z,21.92
2023-03-06T18:40:15.105Z,22.25
2023-03-06T18:42:43.467Z,22.39
2023-03-06T18:45:11.301Z,22.02
2023-03-06T18:47:38.273Z,21.98
2023-03-06T18:50:06.204Z,22.01
2023-03-06T18:52:33.732Z,21.96
2023-03-06T18:55:00.571Z,21.87
2023-03-06T18:57:29.286Z,21.68
2023-03-06T18:59:58.458Z,21.93
2023-03-06T19:02:26.234Z,21.67
2023-03-06T19:04:53.130Z,22.18
2023-03-06T19:07:20.140Z,22.19
2023-03-06T19:09:48.220Z,21.46
2023-03-06T19:12:15.581Z,22.01
2023-03-06T19:14:42.350Z,21.52
2023-03-06T19:17:10.532Z,22.07
2023-03-06T19:19:37.343Z,22.13
2023-03-06T19:22:04.302Z,22.13
2023-03-06T19:24:31.132Z,21.99
2023-03-06T19:26:57.963Z,21.68
2023-03-06T19:29:24.788Z,22.08
2023-03-06T19:31:52.228Z,21.66
2023-03-06T19:34:20.465Z,22.22
2023-03-06T19:36:49.870Z,21.65
2023-03-06T19:39:16.620Z,21.55
2023-03-06T19:41:43.504Z,22.11
2023-03-06T19:44:12.263Z,21.75
2023-03-06T19:46:40.802Z,21.89
2023-03-06T19:49:12.095Z,21.57
2023-03-06T19:51:40.230Z,22.00
2023-03-06T19:54:07.008Z,21.93
2023-03-06T19:56:33.859Z,21.55
2023-03-06T19:59:00.699Z,22.07
2023-03-06T20:01:28.649Z,21.62
2023-03-06T20:03:58.897Z,22.02
2023-03-06T20:06:28.092Z,22.16
2023-03-06T20:08:56.291Z,21.63
2023-03-06T20:11:25.321Z,21.53
2023-03-06T20:13:52.652Z,21.69
2023-03-06T20:16:19.702Z,21.56
2023-03-06T20:18:46.746Z,21.65
2023-03-06T20:21:14.184Z,21.53
2023-03-06T20:23:41.040Z,21.84
2023-03-06T20:26:12.178Z,22.08
2023-03-06T20:28:39.657Z,21.93
2023-03-06T20:31:07.557Z,21.84
2023-03-06T20:33:34.542Z,22.00
2023-03-06T20:36:01.427Z,21.95
2023-03-06T20:38:28.316Z,21.41
2023-03-06T20:40:56.193Z,21.46
2023-03-06T20:43:24.476Z,21.72
2023-03-06T20:45:58.769Z,22.07
2023-03-06T20:48:25.690Z,21.55
2023-03-06T20:51:00.197Z,21.50
2023-03-06T20:53:27.377Z,21.48
2023-03-06T20:55:54.241Z,21.51
2023-03-06T20:58:23.299Z,21.50
2023-03-06T21:00:51.870Z,21.23
2023-03-06T21:03:18.653Z,21.63
2023-03-06T21:05:46.188Z,21.26
2023-03-06T21:08:12.969Z,21.29
2023-03-06T21:10:39.806Z,21.02
2023-03-06T21:13:06.641Z,21.30
2023-03-06T21:15:33.655Z,21.71
2023-03-06T21:18:01.898Z,21.76
2023-03-06T21:20:28.653Z,21.78
2023-03-06T21:22:56.410Z,21.74
2023-03-06T21:25:23.227Z,21.89
2023-03-06T21:27:50.162Z,21.72
2023-03-06T21:30:17.309Z,21.52
2023-03-06T21:32:44.208Z,21.93
2023-03-06T21:35:12.502Z,21.89
2023-03-06T21:37:39.425Z,21.67
2023-03-06T21:40:07.740Z,21.67
2023-03-06T21:42:37.879Z,21.67
2023-03-06T21:45:05.757Z,21.75
2023-03-06T21:47:37.775Z,22.02
2023-03-06T21:50:05.402Z,21.64
2023-03-06T21:52:33.551Z,22.06
2023-03-06T21:55:00.396Z,22.14
2023-03-06T21:57:27.241Z,22.15
2023-03-06T21:59:54.083Z,22.01
2023-03-06T22:02:20.979Z,22.20
2023-03-06T22:04:50.143Z,22.27
2023-03-06T22:07:17.153Z,22.12
2023-03-06T22:09:45.533Z,22.14
2023-03-06T22:12:12.534Z,22.10
2023-03-06T22:14:39.514Z,22.14
2023-03-06T22:17:06.283Z,22.30
2023-03-06T22:19:33.150Z,22.40
2023-03-06T22:22:00.024Z,22.51
2023-03-06T22:24:26.761Z,22.82
2023-03-06T22:26:55.086Z,22.23
2023-03-06T22:29:22.003Z,22.36
2023-03-06T22:31:48.840Z,22.57
2023-03-06T22:34:15.689Z,22.49
2023-03-06T22:36:42.587Z,22.72
2023-03-06T22:39:12.789Z,22.68
2023-03-06T22:41:40.177Z,22.68
2023-03-06T22:44:14.405Z,22.78
2023-03-06T22:46:41.894Z,22.59
2023-03-06T22:49:11.769Z,22.79
2023-03-06T22:51:39.254Z,22.66
2023-03-06T22:54:07.062Z,22.78
2023-03-06T22:56:34.112Z,22.61
2023-03-06T22:59:01.220Z,22.80
2023-03-06T23:01:31.435Z,22.40
2023-03-06T23:04:00.189Z,22.72
2023-03-06T23:06:29.589Z,22.72
2023-03-06T23:08:58.132Z,22.59
2023-03-06T23:11:27.793Z,22.70
2023-03-06T23:14:14.283Z,22.71
2023-03-06T23:17:00.954Z,22.79
2023-03-06T23:19:49.364Z,22.83
2023-03-06T23:22:34.459Z,22.79
2023-03-06T23:25:19.844Z,22.64
2023-03-06T23:27:46.711Z,22.91
2023-03-06T23:30:14.243Z,22.91
2023-03-06T23:32:44.827Z,22.86
2023-03-06T23:35:12.648Z,22.61
2023-03-06T23:37:39.496Z,22.81
2023-03-06T23:40:09.250Z,22.81
2023-03-06T23:42:36.183Z,22.93
2023-03-06T23:45:03.291Z,22.90
2023-03-06T23:47:32.078Z,22.80
2023-03-06T23:50:00.274Z,22.90
2023-03-06T23:52:27.114Z,22.84
2023-03-06T23:54:54.129Z,22.87
2023-03-06T23:57:21.028Z,22.95
2023-03-06T23:59:47.832Z,22.84
